createdAt,value
2018-08-25T00:02:16.748Z,46.02
2018-08-25T00:04:45.510Z,45.17
2018-08-25T00:07:14.073Z,45.05
2018-08-25T00:09:43.069Z,46.82
2018-08-25T00:12:11.634Z,47.33
2018-08-25T00:14:40.208Z,46.50
2018-08-25T00:17:09.106Z,47.90
2018-08-25T00:19:37.931Z,45.32
2018-08-25T00:22:06.426Z,45.86
2018-08-25T00:24:34.948Z,47.79
2018-08-25T00:27:03.934Z,49.02
2018-08-25T00:29:32.832Z,48.90
2018-08-25T00:32:02.060Z,48.70
2018-08-25T00:34:31.077Z,48.76
2018-08-25T00:36:59.595Z,47.97
2018-08-25T00:39:28.137Z,47.17
2018-08-25T00:41:57.496Z,47.90
2018-08-25T00:44:27.463Z,48.87
2018-08-25T00:46:56.213Z,48.44
2018-08-25T00:49:24.881Z,47.94
2018-08-25T00:51:53.399Z,48.06
2018-08-25T00:54:21.981Z,48.58
2018-08-25T00:56:50.504Z,48.01
2018-08-25T00:59:19.097Z,49.29
2018-08-25T01:01:47.651Z,49.46
2018-08-25T01:04:16.502Z,49.74
2018-08-25T01:06:48.346Z,48.97
2018-08-25T01:09:16.919Z,49.69
2018-08-25T01:11:45.448Z,50.20
2018-08-25T01:14:14.023Z,49.98
2018-08-25T01:16:42.564Z,49.85
2018-08-25T01:19:11.117Z,50.55
2018-08-25T01:21:39.644Z,50.56
2018-08-25T01:24:09.106Z,49.57
2018-08-25T01:26:37.645Z,50.26
2018-08-25T01:29:06.260Z,50.03
2018-08-25T01:31:34.798Z,51.45
2018-08-25T01:34:03.630Z,51.14
2018-08-25T01:36:32.190Z,51.06
2018-08-25T01:39:00.748Z,51.23
2018-08-25T01:41:29.504Z,50.35
2018-08-25T01:43:58.244Z,50.39
2018-08-25T01:46:26.736Z,50.89
2018-08-25T01:48:56.331Z,50.93
2018-08-25T01:51:24.850Z,50.91
2018-08-25T01:53:54.028Z,50.83
2018-08-25T01:56:22.616Z,50.97
2018-08-25T01:58:51.688Z,50.58
2018-08-25T02:01:20.222Z,50.68
2018-08-25T02:03:48.762Z,52.00
2018-08-25T02:06:18.294Z,52.07
2018-08-25T02:08:46.845Z,52.92
2018-08-25T02:11:15.442Z,52.60
2018-08-25T02:13:44.501Z,53.00
2018-08-25T02:16:13.071Z,51.99
2018-08-25T02:18:42.033Z,51.78
2018-08-25T02:21:10.925Z,54.53
2018-08-25T02:23:40.701Z,56.25
2018-08-25T02:26:09.220Z,59.21
2018-08-25T02:28:37.721Z,62.65
2018-08-25T02:31:07.167Z,63.42
2018-08-25T02:33:35.713Z,64.60
2018-08-25T02:36:04.273Z,66.84
2018-08-25T02:38:32.825Z,66.86
2018-08-25T02:41:01.341Z,68.04
2018-08-25T02:43:31.757Z,67.36
2018-08-25T02:46:00.305Z,68.26
2018-08-25T02:48:28.857Z,67.33
2018-08-25T02:50:57.769Z,67.77
2018-08-25T02:53:26.864Z,68.26
2018-08-25T02:55:55.421Z,67.34
2018-08-25T02:58:25.798Z,67.19
2018-08-25T03:00:54.348Z,67.55
2018-08-25T03:03:23.108Z,67.28
2018-08-25T03:05:51.693Z,68.25
2018-08-25T03:08:20.205Z,69.17
2018-08-25T03:10:48.738Z,69.40
2018-08-25T03:13:17.290Z,69.89
2018-08-25T03:15:45.840Z,69.35
2018-08-25T03:18:14.782Z,69.80
2018-08-25T03:20:43.549Z,68.82
2018-08-25T03:23:12.305Z,69.59
2018-08-25T03:25:41.659Z,68.05
2018-08-25T03:28:10.171Z,67.07
2018-08-25T03:30:38.695Z,70.03
2018-08-25T03:33:07.513Z,70.66
2018-08-25T03:35:36.053Z,68.75
2018-08-25T03:38:05.410Z,66.60
2018-08-25T03:40:33.954Z,66.05
2018-08-25T03:43:02.474Z,64.42
2018-08-25T03:45:31.074Z,65.00
2018-08-25T03:48:00.196Z,65.44
2018-08-25T03:50:29.449Z,63.73
2018-08-25T03:52:57.965Z,64.83
2018-08-25T03:55:26.575Z,65.33
2018-08-25T03:57:55.428Z,65.06
2018-08-25T04:00:23.971Z,64.63
2018-08-25T04:02:52.910Z,62.93
2018-08-25T04:05:21.456Z,63.21
2018-08-25T04:07:49.978Z,61.21
2018-08-25T04:10:18.557Z,62.06
2018-08-25T04:12:47.088Z,61.78
2018-08-25T04:15:16.049Z,62.27
2018-08-25T04:17:44.589Z,62.68
2018-08-25T04:20:13.151Z,60.67
2018-08-25T04:22:42.713Z,61.43
2018-08-25T04:25:11.822Z,60.41
2018-08-25T04:27:40.662Z,61.44
2018-08-25T04:30:09.649Z,61.48
2018-08-25T04:32:38.415Z,61.48
2018-08-25T04:35:07.030Z,61.85
2018-08-25T04:37:35.761Z,63.11
2018-08-25T04:40:04.598Z,63.10
2018-08-25T04:42:33.384Z,61.82
2018-08-25T04:45:02.653Z,60.84
2018-08-25T04:47:31.197Z,60.18
2018-08-25T04:49:59.709Z,60.83
2018-08-25T04:52:28.554Z,59.89
2018-08-25T04:54:57.060Z,61.86
2018-08-25T04:57:27.450Z,60.49
2018-08-25T04:59:56.369Z,59.01
2018-08-25T05:02:24.953Z,58.15
2018-08-25T05:04:53.476Z,56.54
2018-08-25T05:07:22.037Z,58.38
2018-08-25T05:09:50.560Z,58.90
2018-08-25T05:12:19.197Z,57.84
2018-08-25T05:14:48.136Z,60.27
2018-08-25T05:17:18.030Z,59.52
2018-08-25T05:19:47.181Z,58.73
2018-08-25T05:22:16.042Z,58.88
2018-08-25T05:24:44.548Z,58.04
2018-08-25T05:27:13.091Z,58.18
2018-08-25T05:29:41.619Z,59.38
2018-08-25T05:32:11.365Z,59.11
2018-08-25T05:34:39.872Z,58.36
2018-08-25T05:37:08.437Z,58.39
2018-08-25T05:39:37.300Z,59.66
2018-08-25T05:42:05.941Z,60.73
2018-08-25T05:44:34.875Z,63.18
2018-08-25T05:47:03.482Z,61.82
2018-08-25T05:49:32.001Z,63.00
2018-08-25T05:52:00.533Z,61.69
2018-08-25T05:54:29.442Z,62.09
2018-08-25T05:56:59.063Z,62.47
2018-08-25T05:59:27.570Z,64.74
2018-08-25T06:01:56.136Z,64.28
2018-08-25T06:04:24.654Z,63.65
2018-08-25T06:06:53.572Z,65.19
2018-08-25T06:09:22.648Z,64.81
2018-08-25T06:11:51.214Z,65.72
2018-08-25T06:14:20.476Z,66.60
2018-08-25T06:16:49.127Z,65.93
2018-08-25T06:19:18.164Z,65.63
2018-08-25T06:21:47.653Z,66.44
2018-08-25T06:24:16.159Z,66.86
2018-08-25T06:26:44.710Z,65.98
2018-08-25T06:29:13.209Z,64.69
2018-08-25T06:31:41.771Z,65.92
2018-08-25T06:34:10.268Z,67.03
2018-08-25T06:36:38.896Z,67.08
2018-08-25T06:39:09.112Z,66.55
2018-08-25T06:41:37.635Z,68.54
2018-08-25T06:44:06.196Z,67.32
2018-08-25T06:46:34.740Z,69.26
2018-08-25T06:49:03.253Z,67.68
2018-08-25T06:51:31.807Z,67.70
2018-08-25T06:54:00.365Z,67.81
2018-08-25T06:56:29.814Z,70.41
2018-08-25T06:58:59.403Z,72.50
2018-08-25T07:01:28.009Z,74.31
2018-08-25T07:03:56.607Z,73.90
2018-08-25T07:06:25.351Z,74.25
2018-08-25T07:08:53.928Z,72.54
2018-08-25T07:11:22.647Z,74.60
2018-08-25T07:13:51.183Z,74.54
2018-08-25T07:16:19.733Z,74.77
2018-08-25T07:18:48.512Z,74.40
2018-08-25T07:21:17.051Z,75.95
2018-08-25T07:23:46.746Z,74.81
2018-08-25T07:26:16.082Z,76.37
2018-08-25T07:28:44.571Z,76.20
2018-08-25T07:31:13.090Z,77.63
2018-08-25T07:33:41.895Z,78.24
2018-08-25T07:36:10.399Z,79.32
2018-08-25T07:38:39.803Z,77.87
2018-08-25T07:41:08.345Z,77.17
2018-08-25T07:43:37.203Z,78.49
2018-08-25T07:46:06.005Z,77.47
2018-08-25T07:48:35.350Z,78.82
2018-08-25T07:51:04.215Z,78.93
2018-08-25T07:53:32.770Z,80.07
2018-08-25T07:56:01.682Z,80.20
2018-08-25T07:58:30.994Z,80.25
2018-08-25T08:00:59.774Z,81.65
2018-08-25T08:03:28.313Z,80.17
2018-08-25T08:05:57.662Z,80.54
2018-08-25T08:08:26.597Z,80.83
2018-08-25T08:10:55.432Z,81.66
2018-08-25T08:13:24.445Z,80.76
2018-08-25T08:15:52.975Z,81.73
2018-08-25T08:18:22.374Z,81.06
2018-08-25T08:20:50.917Z,80.48
2018-08-25T08:23:19.433Z,79.91
2018-08-25T08:25:47.946Z,80.43
2018-08-25T08:28:17.189Z,81.01
2018-08-25T08:30:45.754Z,81.57
2018-08-25T08:33:14.628Z,80.95
2018-08-25T08:35:43.170Z,81.14
2018-08-25T08:38:12.126Z,82.62
2018-08-25T08:40:40.696Z,83.57
2018-08-25T08:43:10.125Z,81.99
2018-08-25T08:45:40.059Z,78.90
2018-08-25T08:48:08.881Z,79.33
2018-08-25T08:50:37.392Z,78.43
2018-08-25T08:53:05.995Z,73.45
2018-08-25T08:55:34.734Z,74.50
2018-08-25T08:58:03.616Z,74.37
2018-08-25T09:00:33.526Z,74.21
2018-08-25T09:03:02.224Z,73.68
2018-08-25T09:05:31.224Z,72.25
2018-08-25T09:07:59.777Z,73.54
2018-08-25T09:10:28.958Z,73.68
2018-08-25T09:12:58.037Z,74.04
2018-08-25T09:15:26.549Z,74.92
2018-08-25T09:17:55.723Z,72.35
2018-08-25T09:20:24.365Z,73.06
2018-08-25T09:22:53.548Z,73.42
2018-08-25T09:25:22.203Z,70.84
2018-08-25T09:27:50.732Z,71.96
2018-08-25T09:30:19.734Z,71.49
2018-08-25T09:32:48.267Z,71.36
2018-08-25T09:35:16.815Z,69.77
2018-08-25T09:37:46.451Z,70.54
2018-08-25T09:40:15.000Z,70.46
2018-08-25T09:42:43.535Z,70.03
2018-08-25T09:45:12.355Z,67.59
2018-08-25T09:47:40.967Z,69.18
2018-08-25T09:50:09.505Z,67.26
2018-08-25T09:52:38.255Z,65.00
2018-08-25T09:55:07.864Z,67.13
2018-08-25T09:57:36.397Z,63.79
2018-08-25T10:00:05.521Z,64.46
2018-08-25T10:02:34.050Z,65.70
2018-08-25T10:05:03.086Z,63.91
2018-08-25T10:07:31.571Z,62.72
2018-08-25T10:10:00.100Z,63.33
2018-08-25T10:12:29.051Z,62.52
2018-08-25T10:14:57.805Z,62.34
2018-08-25T10:17:26.577Z,59.51
2018-08-25T10:19:55.090Z,60.18
2018-08-25T10:22:23.596Z,59.25
2018-08-25T10:24:52.394Z,60.15
2018-08-25T10:27:21.142Z,59.19
2018-08-25T10:29:49.751Z,57.61
2018-08-25T10:32:18.582Z,56.86
2018-08-25T10:34:47.679Z,54.46
2018-08-25T10:37:17.158Z,54.75
2018-08-25T10:39:45.704Z,55.62
2018-08-25T10:42:14.834Z,54.95
2018-08-25T10:44:43.669Z,54.25
2018-08-25T10:47:12.188Z,52.81
2018-08-25T10:49:41.113Z,52.36
2018-08-25T10:52:09.699Z,52.82
2018-08-25T10:54:38.235Z,51.69
2018-08-25T10:57:07.666Z,50.59
2018-08-25T10:59:36.658Z,51.77
2018-08-25T11:02:05.253Z,50.57
2018-08-25T11:04:37.892Z,50.74
2018-08-25T11:07:07.354Z,49.64
2018-08-25T11:09:36.106Z,49.11
2018-08-25T11:12:04.654Z,48.07
2018-08-25T11:14:33.181Z,48.21
2018-08-25T11:17:01.700Z,46.18
2018-08-25T11:19:30.256Z,45.66
2018-08-25T11:22:08.268Z,47.22
2018-08-25T11:24:37.281Z,48.08
2018-08-25T11:27:06.096Z,48.23
2018-08-25T11:29:35.041Z,48.33
2018-08-25T11:32:03.582Z,49.52
2018-08-25T11:34:32.458Z,48.94
2018-08-25T11:37:01.034Z,49.72
2018-08-25T11:39:30.036Z,50.52
2018-08-25T11:41:58.589Z,50.73
2018-08-25T11:44:28.899Z,48.91
2018-08-25T11:46:57.793Z,48.71
2018-08-25T11:49:26.655Z,48.50
2018-08-25T11:51:55.865Z,46.49
2018-08-25T11:54:24.482Z,44.25
2018-08-25T11:56:53.405Z,39.96
2018-08-25T11:59:22.259Z,40.72
2018-08-25T12:01:51.349Z,41.64
2018-08-25T12:04:20.161Z,44.07
2018-08-25T12:06:48.733Z,45.19
2018-08-25T12:09:17.872Z,46.32
2018-08-25T12:11:46.489Z,47.27
2018-08-25T12:14:15.343Z,48.88
2018-08-25T12:16:44.207Z,47.75
2018-08-25T12:19:13.099Z,47.71
2018-08-25T12:21:42.647Z,47.15
2018-08-25T12:24:11.302Z,47.52
2018-08-25T12:26:40.619Z,48.20
2018-08-25T12:29:09.139Z,47.73
2018-08-25T12:31:38.822Z,48.17
2018-08-25T12:34:07.678Z,47.72
2018-08-25T12:36:36.694Z,47.64
2018-08-25T12:39:10.071Z,48.17
2018-08-25T12:41:38.873Z,47.31
2018-08-25T12:44:07.420Z,47.35
2018-08-25T12:46:35.975Z,46.85
2018-08-25T12:49:04.571Z,46.96
2018-08-25T12:51:33.430Z,47.75
2018-08-25T12:54:03.493Z,47.18
2018-08-25T12:56:32.382Z,48.30
2018-08-25T12:59:01.239Z,48.72
2018-08-25T13:01:29.805Z,48.68
2018-08-25T13:03:58.939Z,48.43
2018-08-25T13:06:27.482Z,46.38
2018-08-25T13:08:56.437Z,47.29
2018-08-25T13:11:25.362Z,48.30
2018-08-25T13:13:53.892Z,48.62
2018-08-25T13:16:22.421Z,49.20
2018-08-25T13:18:51.006Z,48.89
2018-08-25T13:21:19.563Z,49.07
2018-08-25T13:23:48.536Z,49.55
2018-08-25T13:26:17.092Z,49.75
2018-08-25T13:28:45.612Z,49.52
2018-08-25T13:31:14.206Z,49.92
2018-08-25T13:33:43.129Z,49.76
2018-08-25T13:36:12.277Z,50.29
2018-08-25T13:38:41.426Z,49.13
2018-08-25T13:41:10.056Z,49.44
2018-08-25T13:43:38.947Z,48.32
2018-08-25T13:46:07.582Z,48.40
2018-08-25T13:48:36.136Z,48.86
2018-08-25T13:51:04.751Z,48.52
2018-08-25T13:53:33.213Z,48.90
2018-08-25T13:56:01.871Z,48.14
2018-08-25T13:58:31.191Z,48.58
2018-08-25T14:00:59.731Z,48.33
2018-08-25T14:03:28.260Z,49.48
2018-08-25T14:05:56.992Z,48.88
2018-08-25T14:08:25.829Z,49.05
2018-08-25T14:10:55.314Z,47.95
2018-08-25T14:13:23.827Z,47.00
2018-08-25T14:15:52.691Z,47.56
2018-08-25T14:18:21.221Z,47.29
2018-08-25T14:20:49.737Z,46.68
2018-08-25T14:23:18.241Z,46.70
2018-08-25T14:25:46.772Z,46.90
2018-08-25T14:28:15.287Z,47.48
2018-08-25T14:30:43.831Z,47.07
2018-08-25T14:33:12.462Z,47.46
2018-08-25T14:35:41.020Z,47.05
2018-08-25T14:38:09.883Z,48.66
2018-08-25T14:40:38.726Z,47.01
2018-08-25T14:43:07.853Z,46.99
2018-08-25T14:45:36.417Z,47.96
2018-08-25T14:48:05.079Z,48.47
2018-08-25T14:50:34.003Z,48.61
2018-08-25T14:53:02.893Z,49.49
2018-08-25T14:55:32.226Z,50.68
2018-08-25T14:58:00.775Z,51.35
2018-08-25T15:00:30.188Z,49.69
2018-08-25T15:02:58.740Z,50.33
2018-08-25T15:05:27.294Z,49.43
2018-08-25T15:07:56.172Z,49.44
2018-08-25T15:10:24.637Z,48.38
2018-08-25T15:12:53.483Z,48.00
2018-08-25T15:15:22.038Z,48.15
2018-08-25T15:17:50.566Z,46.93
2018-08-25T15:20:19.298Z,46.62
2018-08-25T15:22:47.999Z,47.39
2018-08-25T15:25:16.539Z,46.93
2018-08-25T15:27:45.116Z,46.39
2018-08-25T15:30:13.734Z,44.35
2018-08-25T15:32:42.478Z,45.52
2018-08-25T15:35:11.013Z,45.74
2018-08-25T15:37:39.565Z,45.04
2018-08-25T15:40:08.220Z,45.55
2018-08-25T15:42:36.764Z,45.63
2018-08-25T15:45:05.332Z,45.67
2018-08-25T15:47:33.864Z,46.02
2018-08-25T15:50:02.367Z,46.33
2018-08-25T15:52:30.952Z,46.08
2018-08-25T15:54:59.488Z,46.30
2018-08-25T15:57:28.194Z,47.06
2018-08-25T15:59:56.741Z,46.17
2018-08-25T16:02:25.278Z,46.94
2018-08-25T16:04:53.841Z,46.81
2018-08-25T16:07:22.673Z,47.49
2018-08-25T16:09:51.490Z,47.46
2018-08-25T16:12:20.299Z,51.25
2018-08-25T16:14:48.791Z,55.32
2018-08-25T16:17:17.429Z,57.92
2018-08-25T16:19:46.380Z,58.17
2018-08-25T16:22:14.826Z,57.34
2018-08-25T16:24:43.759Z,58.30
2018-08-25T16:27:12.325Z,58.58
2018-08-25T16:29:40.875Z,58.75
2018-08-25T16:32:09.424Z,58.94
2018-08-25T16:34:37.942Z,57.21
2018-08-25T16:37:06.151Z,55.24
2018-08-25T16:39:34.973Z,55.01
2018-08-25T16:42:03.494Z,56.38
2018-08-25T16:44:32.050Z,54.88
2018-08-25T16:47:00.577Z,53.86
2018-08-25T16:49:30.002Z,54.69
2018-08-25T16:51:58.504Z,54.36
2018-08-25T16:54:27.046Z,53.12
2018-08-25T16:56:55.574Z,53.71
2018-08-25T16:59:24.134Z,53.72
2018-08-25T17:01:53.452Z,52.95
2018-08-25T17:04:21.994Z,50.86
2018-08-25T17:06:50.506Z,50.45
2018-08-25T17:09:19.390Z,50.71
2018-08-25T17:11:47.930Z,49.87
2018-08-25T17:14:17.556Z,48.85
2018-08-25T17:16:46.326Z,50.29
2018-08-25T17:19:14.868Z,49.86
2018-08-25T17:21:43.377Z,49.98
2018-08-25T17:24:12.276Z,49.45
2018-08-25T17:26:41.230Z,50.24
2018-08-25T17:29:09.788Z,49.56
2018-08-25T17:31:38.660Z,50.43
2018-08-25T17:34:07.198Z,51.26
2018-08-25T17:36:35.720Z,51.90
2018-08-25T17:39:06.810Z,52.73
2018-08-25T17:41:35.629Z,52.81
2018-08-25T17:44:04.595Z,52.95
2018-08-25T17:46:33.121Z,53.07
2018-08-25T17:49:01.973Z,53.31
2018-08-25T17:51:30.495Z,54.26
2018-08-25T17:53:59.261Z,53.87
2018-08-25T17:56:28.061Z,54.69
2018-08-25T17:58:57.442Z,54.25
2018-08-25T18:01:25.998Z,54.91
2018-08-25T18:03:54.949Z,53.27
2018-08-25T18:06:23.443Z,52.90
2018-08-25T18:08:51.959Z,53.11
2018-08-25T18:11:20.696Z,52.11
2018-08-25T18:13:49.258Z,52.01
2018-08-25T18:16:17.760Z,52.22
2018-08-25T18:18:46.326Z,52.51
2018-08-25T18:21:15.225Z,53.43
2018-08-25T18:23:44.817Z,53.75
2018-08-25T18:26:14.022Z,54.30
2018-08-25T18:28:42.568Z,54.44
2018-08-25T18:31:11.091Z,53.97
2018-08-25T18:33:40.134Z,54.25
2018-08-25T18:36:08.695Z,53.52
2018-08-25T18:38:37.261Z,53.81
2018-08-25T18:41:05.823Z,53.26
2018-08-25T18:43:34.397Z,53.78
2018-08-25T18:46:03.361Z,53.54
2018-08-25T18:48:32.384Z,53.28
2018-08-25T18:51:00.909Z,53.38
2018-08-25T18:53:29.444Z,53.60
2018-08-25T18:55:58.016Z,54.01
2018-08-25T18:58:26.570Z,54.21
2018-08-25T19:00:56.043Z,54.40
2018-08-25T19:03:24.675Z,54.90
2018-08-25T19:05:53.378Z,54.79
2018-08-25T19:08:21.989Z,54.80
2018-08-25T19:10:50.533Z,55.35
2018-08-25T19:13:19.374Z,55.51
2018-08-25T19:15:47.931Z,55.72
2018-08-25T19:18:16.889Z,55.64
2018-08-25T19:20:46.499Z,56.64
2018-08-25T19:23:15.033Z,56.44
2018-08-25T19:25:44.131Z,56.47
2018-08-25T19:28:12.948Z,56.65
2018-08-25T19:30:42.021Z,57.52
2018-08-25T19:33:10.785Z,57.29
2018-08-25T19:35:39.372Z,57.42
2018-08-25T19:38:08.741Z,58.16
2018-08-25T19:40:37.632Z,58.42
2018-08-25T19:43:06.516Z,58.74
2018-08-25T19:45:35.077Z,58.67
2018-08-25T19:48:04.307Z,59.20
2018-08-25T19:50:34.134Z,59.56
2018-08-25T19:53:02.827Z,59.42
2018-08-25T19:55:31.385Z,59.83
2018-08-25T19:57:59.893Z,59.57
2018-08-25T20:00:28.860Z,60.43
2018-08-25T20:02:58.277Z,60.60
2018-08-25T20:05:26.900Z,60.45
2018-08-25T20:07:55.603Z,60.61
2018-08-25T20:10:24.152Z,60.86
2018-08-25T20:12:52.910Z,61.24
2018-08-25T20:15:21.816Z,61.43
2018-08-25T20:17:50.905Z,61.26
2018-08-25T20:20:20.276Z,61.14
2018-08-25T20:22:48.812Z,61.53
2018-08-25T20:25:17.375Z,61.66
2018-08-25T20:27:46.473Z,62.50
2018-08-25T20:30:15.078Z,62.52
2018-08-25T20:32:43.584Z,62.74
2018-08-25T20:35:13.871Z,62.69
2018-08-25T20:37:42.360Z,62.91
2018-08-25T20:40:10.916Z,63.51
2018-08-25T20:42:39.467Z,63.62
2018-08-25T20:45:08.285Z,64.28
2018-08-25T20:47:36.836Z,64.65
2018-08-25T20:50:06.008Z,65.29
2018-08-25T20:52:34.550Z,65.78
2018-08-25T20:55:03.119Z,66.59
2018-08-25T20:57:31.691Z,67.45
2018-08-25T21:00:00.294Z,68.33
2018-08-25T21:02:29.097Z,69.35
2018-08-25T21:04:58.557Z,69.59
2018-08-25T21:07:28.031Z,69.82
2018-08-25T21:09:57.081Z,70.30
2018-08-25T21:12:25.646Z,71.23
2018-08-25T21:14:54.354Z,70.85
2018-08-25T21:17:23.035Z,71.17
2018-08-25T21:19:51.924Z,71.74
2018-08-25T21:22:21.421Z,71.71
2018-08-25T21:24:49.991Z,71.38
2018-08-25T21:27:18.808Z,72.08
2018-08-25T21:29:47.437Z,72.87
2018-08-25T21:32:16.271Z,73.00
2018-08-25T21:34:45.018Z,73.14
2018-08-25T21:37:13.573Z,73.62
2018-08-25T21:39:42.123Z,73.98
2018-08-25T21:42:11.658Z,74.19
2018-08-25T21:44:40.533Z,73.88
2018-08-25T21:47:09.110Z,74.04
2018-08-25T21:49:37.690Z,74.42
2018-08-25T21:52:06.611Z,74.30
2018-08-25T21:54:36.237Z,74.49
2018-08-25T21:57:05.721Z,73.94
2018-08-25T21:59:35.525Z,74.25
2018-08-25T22:02:04.139Z,74.60
2018-08-25T22:04:32.689Z,75.18
2018-08-25T22:07:01.236Z,74.67
2018-08-25T22:09:29.794Z,75.65
2018-08-25T22:11:58.369Z,76.03
2018-08-25T22:14:27.186Z,76.41
2018-08-25T22:16:55.736Z,76.52
2018-08-25T22:19:24.265Z,77.12
2018-08-25T22:21:53.353Z,77.01
2018-08-25T22:24:21.884Z,76.94
2018-08-25T22:26:50.423Z,76.92
2018-08-25T22:29:19.756Z,76.81
2018-08-25T22:31:48.345Z,77.32
2018-08-25T22:34:17.093Z,77.44
2018-08-25T22:36:45.884Z,77.77
2018-08-25T22:39:14.712Z,77.88
2018-08-25T22:41:43.891Z,77.51
2018-08-25T22:44:13.823Z,77.80
2018-08-25T22:46:42.588Z,77.65
2018-08-25T22:49:11.537Z,77.25
2018-08-25T22:51:40.099Z,77.22
2018-08-25T22:54:08.629Z,76.85
2018-08-25T22:56:38.512Z,76.95
2018-08-25T22:59:07.080Z,76.58
2018-08-25T23:01:35.650Z,76.43
2018-08-25T23:04:04.184Z,76.22
2018-08-25T23:06:32.728Z,76.09
2018-08-25T23:09:01.885Z,76.02
2018-08-25T23:11:30.462Z,75.81
2018-08-25T23:13:58.974Z,75.48
2018-08-25T23:16:27.525Z,75.17
2018-08-25T23:18:56.045Z,75.04
2018-08-25T23:21:24.974Z,74.14
2018-08-25T23:23:53.496Z,74.32
2018-08-25T23:26:22.249Z,74.66
2018-08-25T23:28:51.475Z,74.96
2018-08-25T23:31:20.021Z,75.09
2018-08-25T23:33:49.264Z,75.16
2018-08-25T23:36:17.825Z,74.42
2018-08-25T23:38:46.382Z,74.21
2018-08-25T23:41:14.901Z,74.04
2018-08-25T23:43:43.543Z,74.42
2018-08-25T23:46:12.296Z,74.77
2018-08-25T23:48:40.937Z,75.42
2018-08-25T23:51:09.841Z,75.42
2018-08-25T23:53:38.609Z,75.69
2018-08-25T23:56:07.156Z,75.69
2018-08-25T23:58:35.769Z,76.15
